createdAt,value
2023-01-29T00:02:21.077Z,-0.40
2023-01-29T00:04:48.944Z,-0.28
2023-01-29T00:07:16.858Z,-0.44
2023-01-29T00:09:44.596Z,-0.42
2023-01-29T00:12:12.574Z,-0.48
2023-01-29T00:14:40.219Z,-0.35
2023-01-29T00:17:08.482Z,-0.36
2023-01-29T00:19:36.430Z,-0.31
2023-01-29T00:22:04.582Z,-0.30
2023-01-29T00:24:32.265Z,-0.38
2023-01-29T00:27:00.182Z,-0.31
2023-01-29T00:29:27.797Z,-0.26
2023-01-29T00:31:55.765Z,-0.45
2023-01-29T00:34:23.588Z,-0.46
2023-01-29T00:36:51.701Z,-0.59
2023-01-29T00:39:29.401Z,-0.55
2023-01-29T00:42:25.713Z,-0.54
2023-01-29T00:44:59.410Z,-0.67
2023-01-29T00:47:33.849Z,-0.61
2023-01-29T00:50:04.310Z,-0.55
2023-01-29T00:52:32.999Z,-0.56
2023-01-29T00:55:01.152Z,-0.36
2023-01-29T00:57:31.447Z,-0.40
2023-01-29T00:59:59.474Z,-0.36
2023-01-29T01:02:46.719Z,-0.40
2023-01-29T01:05:19.889Z,-0.34
2023-01-29T01:07:50.340Z,-0.29
2023-01-29T01:10:21.685Z,-0.23
2023-01-29T01:12:55.917Z,-0.20
2023-01-29T01:15:25.988Z,0.08
2023-01-29T01:17:59.505Z,-0.18
2023-01-29T01:20:29.824Z,-0.21
2023-01-29T01:22:58.156Z,-0.08
2023-01-29T01:25:27.346Z,0.02
2023-01-29T01:30:28.064Z,-0.04
2023-01-29T01:32:56.870Z,-0.08
2023-01-29T01:35:24.505Z,0.00
2023-01-29T01:37:52.480Z,-0.10
2023-01-29T01:40:22.388Z,-0.19
2023-01-29T01:42:56.501Z,-0.14
2023-01-29T01:45:30.859Z,-0.13
2023-01-29T01:48:17.198Z,-0.28
2023-01-29T01:50:58.154Z,-0.19
2023-01-29T01:53:40.433Z,-0.22
2023-01-29T01:56:23.587Z,-0.25
2023-01-29T01:58:57.182Z,-0.36
2023-01-29T02:01:30.094Z,-0.26
2023-01-29T02:04:25.205Z,-0.25
2023-01-29T02:07:12.970Z,-0.16
2023-01-29T02:10:00.242Z,-0.21
2023-01-29T02:12:31.341Z,-0.22
2023-01-29T02:14:59.748Z,-0.30
2023-01-29T02:17:27.455Z,-0.32
2023-01-29T02:20:05.437Z,-0.10
2023-01-29T02:22:59.325Z,-0.06
2023-01-29T02:26:04.351Z,-0.17
2023-01-29T02:28:44.966Z,-0.33
2023-01-29T02:31:34.899Z,-0.35
2023-01-29T02:34:32.767Z,-0.41
2023-01-29T02:37:11.982Z,-0.47
2023-01-29T02:40:11.633Z,-0.20
2023-01-29T02:42:53.122Z,-0.27
2023-01-29T02:45:37.666Z,-0.41
2023-01-29T02:48:06.169Z,-0.39
2023-01-29T02:50:48.501Z,-0.26
2023-01-29T02:53:29.851Z,-0.30
2023-01-29T02:56:11.977Z,-0.28
2023-01-29T02:58:54.840Z,-0.37
2023-01-29T03:01:39.952Z,-0.37
2023-01-29T03:04:13.663Z,-0.35
2023-01-29T03:06:57.161Z,-0.27
2023-01-29T03:09:37.285Z,-0.45
2023-01-29T03:12:33.949Z,-0.52
2023-01-29T03:15:16.208Z,-0.44
2023-01-29T03:18:12.510Z,-0.47
2023-01-29T03:20:49.339Z,-0.56
2023-01-29T03:23:37.967Z,-0.55
2023-01-29T03:26:30.286Z,-0.39
2023-01-29T03:29:19.246Z,-0.49
2023-01-29T03:32:04.451Z,-0.40
2023-01-29T03:34:42.015Z,-0.46
2023-01-29T03:37:25.644Z,-0.44
2023-01-29T03:39:55.602Z,-0.50
2023-01-29T03:42:59.749Z,-0.46
2023-01-29T03:45:32.135Z,-0.32
2023-01-29T03:48:16.774Z,-0.35
2023-01-29T03:51:00.148Z,-0.46
2023-01-29T03:54:04.534Z,-0.20
2023-01-29T03:56:56.673Z,-0.27
2023-01-29T03:59:25.745Z,-0.46
2023-01-29T04:02:38.803Z,-0.30
2023-01-29T04:05:18.228Z,-0.29
2023-01-29T04:08:06.673Z,-0.30
2023-01-29T04:10:38.057Z,-0.37
2023-01-29T04:13:13.242Z,-0.38
2023-01-29T04:15:49.673Z,-0.22
2023-01-29T04:18:19.140Z,-0.25
2023-01-29T04:21:07.222Z,-0.28
2023-01-29T04:23:35.079Z,-0.33
2023-01-29T04:26:21.947Z,-0.45
2023-01-29T04:29:11.777Z,-0.44
2023-01-29T04:31:51.507Z,-0.40
2023-01-29T04:34:19.321Z,-0.42
2023-01-29T04:36:50.522Z,-0.24
2023-01-29T04:39:32.069Z,-0.52
2023-01-29T04:42:27.007Z,-0.48
2023-01-29T04:44:59.708Z,-0.35
2023-01-29T04:47:55.272Z,-0.36
2023-01-29T04:50:48.956Z,-0.30
2023-01-29T04:53:23.878Z,-0.38
2023-01-29T04:56:31.813Z,-0.46
2023-01-29T04:59:06.003Z,-0.49
2023-01-29T05:01:35.774Z,-0.51
2023-01-29T05:04:09.143Z,-0.53
2023-01-29T05:06:38.483Z,-0.47
2023-01-29T05:09:07.648Z,-0.54
2023-01-29T05:11:37.132Z,-0.27
2023-01-29T05:14:08.202Z,-0.32
2023-01-29T05:16:42.591Z,-0.29
2023-01-29T05:19:12.355Z,-0.15
2023-01-29T05:21:42.566Z,-0.21
2023-01-29T05:24:22.191Z,-0.21
2023-01-29T05:27:10.386Z,-0.21
2023-01-29T05:29:40.324Z,-0.20
2023-01-29T05:32:07.948Z,-0.20
2023-01-29T05:34:36.002Z,-0.28
2023-01-29T05:37:03.951Z,-0.24
2023-01-29T05:39:31.898Z,-0.22
2023-01-29T05:42:00.409Z,-0.29
2023-01-29T05:44:28.362Z,-0.39
2023-01-29T05:46:56.017Z,-0.23
2023-01-29T05:49:24.095Z,-0.32
2023-01-29T05:51:51.732Z,-0.30
2023-01-29T05:54:19.769Z,-0.28
2023-01-29T05:56:47.442Z,-0.12
2023-01-29T05:59:16.369Z,-0.21
2023-01-29T06:01:44.260Z,-0.26
2023-01-29T06:04:12.206Z,-0.32
2023-01-29T06:06:39.903Z,-0.41
2023-01-29T06:09:10.100Z,-0.30
2023-01-29T06:11:37.799Z,-0.16
2023-01-29T06:14:06.127Z,-0.24
2023-01-29T06:16:33.876Z,-0.13
2023-01-29T06:19:01.923Z,-0.10
2023-01-29T06:21:29.529Z,-0.04
2023-01-29T06:23:57.558Z,-0.12
2023-01-29T06:26:25.331Z,-0.20
2023-01-29T06:28:53.273Z,-0.13
2023-01-29T06:31:36.572Z,-0.04
2023-01-29T06:34:06.182Z,-0.09
2023-01-29T06:36:33.890Z,-0.20
2023-01-29T06:39:01.914Z,-0.03
2023-01-29T06:41:29.720Z,-0.02
2023-01-29T06:43:57.683Z,0.01
2023-01-29T06:46:25.308Z,0.03
2023-01-29T06:48:53.253Z,0.12
2023-01-29T06:51:22.998Z,0.10
2023-01-29T06:53:50.980Z,0.07
2023-01-29T06:56:18.595Z,0.20
2023-01-29T06:58:46.518Z,0.32
2023-01-29T07:01:29.339Z,0.28
2023-01-29T07:04:03.004Z,0.20
2023-01-29T07:06:31.363Z,0.23
2023-01-29T07:08:59.658Z,0.52
2023-01-29T07:11:27.406Z,0.33
2023-01-29T07:13:55.381Z,0.29
2023-01-29T07:16:23.563Z,0.46
2023-01-29T07:18:51.813Z,0.34
2023-01-29T07:21:19.532Z,0.29
2023-01-29T07:23:47.542Z,0.31
2023-01-29T07:26:15.862Z,0.41
2023-01-29T07:28:43.898Z,0.53
2023-01-29T07:31:15.029Z,0.65
2023-01-29T07:33:46.528Z,0.50
2023-01-29T07:36:14.901Z,0.53
2023-01-29T07:38:43.063Z,0.73
2023-01-29T07:41:12.678Z,0.64
2023-01-29T07:43:40.875Z,0.72
2023-01-29T07:46:08.589Z,0.69
2023-01-29T07:48:36.658Z,0.76
2023-01-29T07:51:04.671Z,0.78
2023-01-29T07:53:32.917Z,1.08
2023-01-29T07:56:00.643Z,1.08
2023-01-29T07:58:28.655Z,1.22
2023-01-29T08:00:56.496Z,1.12
2023-01-29T08:03:24.656Z,1.23
2023-01-29T08:05:52.417Z,1.30
2023-01-29T08:08:20.440Z,1.48
2023-01-29T08:10:48.173Z,1.44
2023-01-29T08:13:16.250Z,1.47
2023-01-29T08:15:45.720Z,1.37
2023-01-29T08:18:14.772Z,1.51
2023-01-29T08:20:42.630Z,1.49
2023-01-29T08:23:15.427Z,1.69
2023-01-29T08:25:43.667Z,1.45
2023-01-29T08:28:12.485Z,1.39
2023-01-29T08:30:40.459Z,1.56
2023-01-29T08:33:08.496Z,1.50
2023-01-29T08:35:36.542Z,1.62
2023-01-29T08:38:05.416Z,1.45
2023-01-29T08:40:34.919Z,1.46
2023-01-29T08:43:06.878Z,1.53
2023-01-29T08:45:38.122Z,1.62
2023-01-29T08:48:06.720Z,1.67
2023-01-29T08:50:35.159Z,1.50
2023-01-29T08:53:07.818Z,1.73
2023-01-29T08:55:39.827Z,1.63
2023-01-29T08:58:10.812Z,1.66
2023-01-29T09:00:38.875Z,1.67
2023-01-29T09:03:08.106Z,1.74
2023-01-29T09:05:37.507Z,1.78
2023-01-29T09:08:06.231Z,1.96
2023-01-29T09:10:34.250Z,2.05
2023-01-29T09:13:02.357Z,2.15
2023-01-29T09:15:30.232Z,2.21
2023-01-29T09:17:58.187Z,2.13
2023-01-29T09:20:25.898Z,2.20
2023-01-29T09:22:56.681Z,2.32
2023-01-29T09:25:24.686Z,2.48
2023-01-29T09:27:53.990Z,2.69
2023-01-29T09:30:22.021Z,2.68
2023-01-29T09:32:53.667Z,2.75
2023-01-29T09:35:24.902Z,2.75
2023-01-29T09:37:53.069Z,2.81
2023-01-29T09:40:59.558Z,2.71
2023-01-29T09:43:46.056Z,2.83
2023-01-29T09:46:16.958Z,2.76
2023-01-29T09:48:45.938Z,2.76
2023-01-29T09:51:29.283Z,2.83
2023-01-29T09:54:24.552Z,2.97
2023-01-29T09:56:56.413Z,2.89
2023-01-29T09:59:29.504Z,3.28
2023-01-29T10:02:29.889Z,3.63
2023-01-29T10:05:32.260Z,4.31
2023-01-29T10:08:14.685Z,4.60
2023-01-29T10:10:56.922Z,4.79
2023-01-29T10:13:41.949Z,4.78
2023-01-29T10:16:18.848Z,5.04
2023-01-29T10:18:52.336Z,4.85
2023-01-29T10:21:32.852Z,4.32
2023-01-29T10:24:24.000Z,4.40
2023-01-29T10:26:53.060Z,4.15
2023-01-29T10:29:22.195Z,4.07
2023-01-29T10:32:04.862Z,3.57
2023-01-29T10:35:18.914Z,3.60
2023-01-29T10:37:47.547Z,3.45
2023-01-29T10:40:58.295Z,3.10
2023-01-29T10:43:49.302Z,3.06
2023-01-29T10:46:16.957Z,3.12
2023-01-29T10:48:50.930Z,3.03
2023-01-29T10:51:40.399Z,3.07
2023-01-29T10:54:08.260Z,2.94
2023-01-29T10:56:56.345Z,2.84
2023-01-29T10:59:49.701Z,2.90
2023-01-29T11:02:21.335Z,2.68
2023-01-29T11:04:49.761Z,2.49
2023-01-29T11:07:21.966Z,2.25
2023-01-29T11:09:56.300Z,2.21
2023-01-29T11:12:31.127Z,2.41
2023-01-29T11:15:36.327Z,2.26
2023-01-29T11:18:15.801Z,2.37
2023-01-29T11:20:45.502Z,2.22
2023-01-29T11:23:31.899Z,2.24
2023-01-29T11:26:01.513Z,2.06
2023-01-29T11:28:45.314Z,2.07
2023-01-29T11:31:26.190Z,1.89
2023-01-29T11:34:06.255Z,1.98
2023-01-29T11:36:39.783Z,1.86
2023-01-29T11:39:24.195Z,1.87
2023-01-29T11:42:04.120Z,2.12
2023-01-29T11:44:33.388Z,2.08
2023-01-29T11:47:19.503Z,2.33
2023-01-29T11:50:05.552Z,2.64
2023-01-29T11:52:42.157Z,2.70
2023-01-29T11:55:25.421Z,2.71
2023-01-29T11:57:59.605Z,2.59
2023-01-29T12:00:33.666Z,2.66
2023-01-29T12:03:30.817Z,2.31
2023-01-29T12:06:21.729Z,2.36
2023-01-29T12:09:01.554Z,2.33
2023-01-29T12:11:36.291Z,2.29
2023-01-29T12:14:21.212Z,2.28
2023-01-29T12:17:12.017Z,2.18
2023-01-29T12:19:55.402Z,2.14
2023-01-29T12:22:41.313Z,2.11
2023-01-29T12:25:18.169Z,1.86
2023-01-29T12:28:24.961Z,1.79
2023-01-29T12:31:09.739Z,1.81
2023-01-29T12:33:49.179Z,1.71
2023-01-29T12:36:19.950Z,1.80
2023-01-29T12:38:47.881Z,1.79
2023-01-29T12:41:21.598Z,1.57
2023-01-29T12:43:55.372Z,1.52
2023-01-29T12:46:31.794Z,1.49
2023-01-29T12:49:07.283Z,1.50
2023-01-29T12:51:55.844Z,1.83
2023-01-29T12:54:34.969Z,1.63
2023-01-29T12:57:08.474Z,1.48
2023-01-29T12:59:54.515Z,1.66
2023-01-29T13:02:39.645Z,1.47
2023-01-29T13:05:27.056Z,1.41
2023-01-29T13:08:07.454Z,1.44
2023-01-29T13:10:42.895Z,1.66
2023-01-29T13:13:38.884Z,1.72
2023-01-29T13:16:11.984Z,1.61
2023-01-29T13:18:56.935Z,1.51
2023-01-29T13:21:31.101Z,1.63
2023-01-29T13:24:04.753Z,1.55
2023-01-29T13:26:34.538Z,1.45
2023-01-29T13:29:03.046Z,1.54
2023-01-29T13:31:40.889Z,1.57
2023-01-29T13:34:08.881Z,1.48
2023-01-29T13:36:42.287Z,1.39
2023-01-29T13:39:16.871Z,1.33
2023-01-29T13:41:44.796Z,1.24
2023-01-29T13:44:28.916Z,1.23
2023-01-29T13:47:21.537Z,1.10
2023-01-29T13:50:19.155Z,1.07
2023-01-29T13:52:57.794Z,1.12
2023-01-29T13:55:37.418Z,1.24
2023-01-29T13:58:15.882Z,1.20
2023-01-29T14:00:43.893Z,1.17
2023-01-29T14:03:11.834Z,1.22
2023-01-29T14:05:56.721Z,1.24
2023-01-29T14:08:41.655Z,1.36
2023-01-29T14:11:21.910Z,1.47
2023-01-29T14:13:52.451Z,1.33
2023-01-29T14:16:20.352Z,1.29
2023-01-29T14:18:49.270Z,1.19
2023-01-29T14:21:17.192Z,1.27
2023-01-29T14:23:49.292Z,1.21
2023-01-29T14:26:31.241Z,1.18
2023-01-29T14:29:33.758Z,1.01
2023-01-29T14:32:14.563Z,1.09
2023-01-29T14:34:50.205Z,1.20
2023-01-29T14:37:19.129Z,0.96
2023-01-29T14:39:52.843Z,1.04
2023-01-29T14:42:34.652Z,0.99
2023-01-29T14:45:23.279Z,1.02
2023-01-29T14:47:51.190Z,0.81
2023-01-29T14:50:34.725Z,1.08
2023-01-29T14:53:14.956Z,0.83
2023-01-29T14:55:50.610Z,0.82
2023-01-29T14:58:42.900Z,0.79
2023-01-29T15:01:37.919Z,0.91
2023-01-29T15:04:14.660Z,0.81
2023-01-29T15:07:01.177Z,0.71
2023-01-29T15:09:57.220Z,0.68
2023-01-29T15:12:51.016Z,0.73
2023-01-29T15:15:40.616Z,0.78
2023-01-29T15:18:19.363Z,0.78
2023-01-29T15:23:30.409Z,0.77
2023-01-29T15:26:04.917Z,0.70
2023-01-29T15:28:35.364Z,0.58
2023-01-29T15:31:07.960Z,0.69
2023-01-29T15:33:38.756Z,0.73
2023-01-29T15:36:08.431Z,0.73
2023-01-29T15:38:36.545Z,0.82
2023-01-29T15:41:20.392Z,0.73
2023-01-29T15:43:50.462Z,0.79
2023-01-29T15:46:24.828Z,0.77
2023-01-29T15:48:55.311Z,0.75
2023-01-29T15:51:26.389Z,0.72
2023-01-29T15:54:06.408Z,0.80
2023-01-29T15:56:48.257Z,0.81
2023-01-29T15:59:26.053Z,0.71
2023-01-29T16:01:54.650Z,0.74
2023-01-29T16:04:31.022Z,0.88
2023-01-29T16:07:02.093Z,0.80
2023-01-29T16:09:30.220Z,0.65
2023-01-29T16:11:59.834Z,0.79
2023-01-29T16:14:28.659Z,0.92
2023-01-29T16:16:56.942Z,0.80
2023-01-29T16:19:29.881Z,0.86
2023-01-29T16:22:03.247Z,0.88
2023-01-29T16:24:34.522Z,0.91
2023-01-29T16:27:11.438Z,0.80
2023-01-29T16:29:39.260Z,0.96
2023-01-29T16:32:09.020Z,0.98
2023-01-29T16:34:42.798Z,0.99
2023-01-29T16:37:24.113Z,0.84
2023-01-29T16:39:52.888Z,0.87
2023-01-29T16:42:23.470Z,0.94
2023-01-29T16:44:52.477Z,0.90
2023-01-29T16:47:28.760Z,0.75
2023-01-29T16:50:04.071Z,0.95
2023-01-29T16:52:34.139Z,0.96
2023-01-29T16:55:01.839Z,0.85
2023-01-29T16:57:33.255Z,0.94
2023-01-29T17:00:11.152Z,0.99
2023-01-29T17:02:40.424Z,1.00
2023-01-29T17:05:16.464Z,0.77
2023-01-29T17:07:46.455Z,0.88
2023-01-29T17:10:19.358Z,0.86
2023-01-29T17:13:19.157Z,0.94
2023-01-29T17:15:47.483Z,0.91
2023-01-29T17:18:24.138Z,0.82
2023-01-29T17:20:55.196Z,0.84
2023-01-29T17:23:23.417Z,0.82
2023-01-29T17:25:51.874Z,0.83
2023-01-29T17:28:19.937Z,0.66
2023-01-29T17:31:00.135Z,0.68
2023-01-29T17:33:33.576Z,0.57
2023-01-29T17:36:01.296Z,0.61
2023-01-29T17:38:29.234Z,0.67
2023-01-29T17:41:08.183Z,0.71
2023-01-29T17:43:36.238Z,0.72
2023-01-29T17:46:04.410Z,0.78
2023-01-29T17:48:32.467Z,0.79
2023-01-29T17:51:04.552Z,0.61
2023-01-29T17:53:45.358Z,0.70
2023-01-29T17:56:21.521Z,0.63
2023-01-29T17:58:49.466Z,0.61
2023-01-29T18:01:17.127Z,0.68
2023-01-29T18:03:45.118Z,0.73
2023-01-29T18:06:23.064Z,0.65
2023-01-29T18:08:51.134Z,0.66
2023-01-29T18:11:18.800Z,0.81
2023-01-29T18:13:46.757Z,0.82
2023-01-29T18:16:14.537Z,0.70
2023-01-29T18:18:42.456Z,0.81
2023-01-29T18:21:10.123Z,0.84
2023-01-29T18:23:37.997Z,0.71
2023-01-29T18:26:07.001Z,0.70
2023-01-29T18:28:34.979Z,0.77
2023-01-29T18:31:04.209Z,0.82
2023-01-29T18:33:34.252Z,0.79
2023-01-29T18:36:04.902Z,0.62
2023-01-29T18:38:35.459Z,0.67
2023-01-29T18:41:05.106Z,0.60
2023-01-29T18:43:33.212Z,0.64
2023-01-29T18:46:01.197Z,0.77
2023-01-29T18:48:30.416Z,0.88
2023-01-29T18:50:58.291Z,0.77
2023-01-29T18:53:26.399Z,0.92
2023-01-29T18:56:04.299Z,0.75
2023-01-29T18:58:36.697Z,0.79
2023-01-29T19:01:09.022Z,0.89
2023-01-29T19:03:37.591Z,0.84
2023-01-29T19:06:07.833Z,0.84
2023-01-29T19:08:36.319Z,0.69
2023-01-29T19:11:08.056Z,0.71
2023-01-29T19:13:38.095Z,0.75
2023-01-29T19:16:10.148Z,0.75
2023-01-29T19:18:38.858Z,0.76
2023-01-29T19:21:08.981Z,0.73
2023-01-29T19:23:37.473Z,0.82
2023-01-29T19:26:05.489Z,0.80
2023-01-29T19:28:34.099Z,0.81
2023-01-29T19:31:02.466Z,0.74
2023-01-29T19:33:30.465Z,0.92
2023-01-29T19:35:59.311Z,1.03
2023-01-29T19:38:28.122Z,0.88
2023-01-29T19:40:55.783Z,1.01
2023-01-29T19:43:23.918Z,0.91
2023-01-29T19:46:01.496Z,0.98
2023-01-29T19:48:29.992Z,0.94
2023-01-29T19:51:00.393Z,0.98
2023-01-29T19:53:30.053Z,1.08
2023-01-29T19:56:00.410Z,0.97
2023-01-29T19:58:28.904Z,0.96
2023-01-29T20:01:05.428Z,0.93
2023-01-29T20:03:34.438Z,0.92
2023-01-29T20:06:03.920Z,0.89
2023-01-29T20:08:32.683Z,0.98
2023-01-29T20:11:00.449Z,0.95
2023-01-29T20:13:28.591Z,0.97
2023-01-29T20:15:56.867Z,1.07
2023-01-29T20:18:24.789Z,1.00
2023-01-29T20:20:53.195Z,1.14
2023-01-29T20:23:35.593Z,1.12
2023-01-29T20:26:11.254Z,0.94
2023-01-29T20:28:39.832Z,0.83
2023-01-29T20:31:08.645Z,0.93
2023-01-29T20:33:39.527Z,0.97
2023-01-29T20:36:10.081Z,0.87
2023-01-29T20:38:38.403Z,0.91
2023-01-29T20:41:14.784Z,0.91
2023-01-29T20:43:44.218Z,0.85
2023-01-29T20:46:13.072Z,0.91
2023-01-29T20:48:42.126Z,0.96
2023-01-29T20:51:13.759Z,0.92
2023-01-29T20:53:46.284Z,0.93
2023-01-29T20:56:16.354Z,0.98
2023-01-29T20:58:46.707Z,1.04
2023-01-29T21:01:19.844Z,1.12
2023-01-29T21:03:48.627Z,1.00
2023-01-29T21:06:16.735Z,1.12
2023-01-29T21:08:44.754Z,0.95
2023-01-29T21:11:12.888Z,1.00
2023-01-29T21:13:41.060Z,1.11
2023-01-29T21:16:10.871Z,1.08
2023-01-29T21:18:39.013Z,1.07
2023-01-29T21:21:06.690Z,0.98
2023-01-29T21:23:34.631Z,0.95
2023-01-29T21:26:06.892Z,1.05
2023-01-29T21:28:35.479Z,1.00
2023-01-29T21:31:10.062Z,1.11
2023-01-29T21:33:38.357Z,1.02
2023-01-29T21:36:06.855Z,1.09
2023-01-29T21:38:34.837Z,1.15
2023-01-29T21:41:08.946Z,1.02
2023-01-29T21:43:37.436Z,1.17
2023-01-29T21:46:16.218Z,1.08
2023-01-29T21:48:44.322Z,1.12
2023-01-29T21:51:12.151Z,1.15
2023-01-29T21:53:40.217Z,1.09
2023-01-29T21:56:08.109Z,1.09
2023-01-29T21:58:36.325Z,1.15
2023-01-29T22:01:36.114Z,0.87
2023-01-29T22:03:52.211Z,0.97
2023-01-29T22:06:20.162Z,1.05
2023-01-29T22:08:49.615Z,0.99
2023-01-29T22:11:17.653Z,0.86
2023-01-29T22:13:45.598Z,0.94
2023-01-29T22:16:13.232Z,0.94
2023-01-29T22:18:41.224Z,0.92
2023-01-29T22:21:08.952Z,0.97
2023-01-29T22:23:36.979Z,0.84
2023-01-29T22:26:06.633Z,0.89
2023-01-29T22:28:34.569Z,0.90
2023-01-29T22:31:06.057Z,0.93
2023-01-29T22:33:34.286Z,0.91
2023-01-29T22:36:02.570Z,0.98
2023-01-29T22:38:31.003Z,0.98
2023-01-29T22:40:59.864Z,0.88
2023-01-29T22:43:29.167Z,0.98
2023-01-29T22:45:56.858Z,1.02
2023-01-29T22:48:25.167Z,0.99
2023-01-29T22:51:12.069Z,0.97
2023-01-29T22:53:56.703Z,1.13
2023-01-29T22:56:26.957Z,1.05
2023-01-29T22:58:57.210Z,0.94
2023-01-29T23:01:28.381Z,0.94
2023-01-29T23:03:56.634Z,0.98
2023-01-29T23:06:24.659Z,0.92
2023-01-29T23:08:52.943Z,0.91
2023-01-29T23:11:23.583Z,1.12
2023-01-29T23:13:54.116Z,1.06
2023-01-29T23:16:25.836Z,0.95
2023-01-29T23:18:56.116Z,0.98
2023-01-29T23:21:25.903Z,1.21
2023-01-29T23:23:55.507Z,1.07
2023-01-29T23:26:41.764Z,1.09
2023-01-29T23:29:10.003Z,1.11
2023-01-29T23:31:38.014Z,1.17
2023-01-29T23:34:06.371Z,1.22
2023-01-29T23:36:34.029Z,1.18
2023-01-29T23:39:02.014Z,1.25
2023-01-29T23:41:29.694Z,1.31
2023-01-29T23:43:57.615Z,1.27
2023-01-29T23:46:25.356Z,1.28
2023-01-29T23:48:53.388Z,1.29
2023-01-29T23:51:20.976Z,1.28
2023-01-29T23:53:48.943Z,1.20
2023-01-29T23:56:16.643Z,1.21
2023-01-29T23:58:44.931Z,1.26
